Time;durP1;ratioP1;P1;durP2;ratioP2;P2;SDS_P1;SDS_P2;PMS_P1;PMS_P2;Temp;Humidity;BMP_temperature;BMP_pressure;BME280_temperature;BME280_humidity;BME280_pressure;Samples;Min_cycle;Max_cycle;Signal;HPM_P1;HPM_P2
2024/02/28 00:00:56;;;;;;;;;;;;;;;3.46;85.95;96837.06;7398202;19;996;-69
2024/02/28 00:03:24;;;;;;;;;;;;;;;3.43;85.42;96837.09;7397727;19;1852;-69
2024/02/28 00:05:53;;;;;;;;;;;;;;;3.35;85.92;96844.03;7397979;19;1067;-68
2024/02/28 00:08:22;;;;;;;;;;;;;;;3.34;85.16;96847.50;7398045;19;1939;-67
2024/02/28 00:10:50;;;;;;;;;;;;;;;3.29;85.26;96850.09;7396409;19;1851;-70
2024/02/28 00:13:20;;;;;;;;;;;;;;;3.33;85.42;96853.50;7397819;19;1892;-70
2024/02/28 00:15:51;;;;;;;;;;;;;;;3.24;85.42;96855.28;7397721;19;1021;-72
2024/02/28 00:18:19;;;;;;;;;;;;;;;3.25;86.45;96856.16;7397760;19;961;-70
2024/02/28 00:20:48;;;;;;;;;;;;;;;3.18;85.61;96852.72;7397192;19;1040;-68
2024/02/28 00:23:16;;;;;;;;;;;;;;;3.15;85.43;96853.59;7397502;19;1833;-73
2024/02/28 00:25:45;;;;;;;;;;;;;;;3.09;85.60;96851.03;7397448;19;1031;-69
2024/02/28 00:28:13;;;;;;;;;;;;;;;3.08;85.47;96857.06;7397292;19;1787;-73
2024/02/28 00:30:42;;;;;;;;;;;;;;;3.02;85.81;96854.50;7395893;19;1846;-70
2024/02/28 00:33:13;;;;;;;;;;;;;;;2.94;86.25;96864.84;7397035;19;1048;-69
2024/02/28 00:35:42;;;;;;;;;;;;;;;3.00;87.32;96863.97;7397195;19;1017;-69
2024/02/28 00:38:08;;;;;;;;;;;;;;;2.99;87.66;96863.13;7397136;19;966;-71
2024/02/28 00:40:36;;;;;;;;;;;;;;;3.04;86.88;96852.75;7394803;19;965;-71
2024/02/28 00:43:05;;;;;;;;;;;;;;;2.99;86.46;96855.38;7395990;19;1189;-74
2024/02/28 00:45:33;;;;;;;;;;;;;;;2.99;86.57;96851.91;7397003;19;958;-66
2024/02/28 00:48:02;;;;;;;;;;;;;;;3.01;85.78;96863.13;7396447;19;1078;-70
2024/02/28 00:50:33;;;;;;;;;;;;;;;3.02;84.93;96855.38;7396033;19;1837;-68
2024/02/28 00:53:01;;;;;;;;;;;;;;;3.01;84.35;96858.78;7396798;19;1004;-66
2024/02/28 00:55:30;;;;;;;;;;;;;;;2.92;84.11;96863.97;7396392;19;1815;-70
2024/02/28 00:57:58;;;;;;;;;;;;;;;2.81;85.13;96860.56;7396995;19;1748;-75
2024/02/28 01:00:26;;;;;;;;;;;;;;;2.75;85.60;96862.31;7396915;19;1780;-68
2024/02/28 01:02:55;;;;;;;;;;;;;;;2.72;85.46;96861.44;7396417;19;1824;-69
2024/02/28 01:05:24;;;;;;;;;;;;;;;2.65;85.19;96861.44;7396317;19;956;-67
2024/02/28 01:07:55;;;;;;;;;;;;;;;2.63;85.02;96859.75;7395950;19;1966;-68
2024/02/28 01:10:24;;;;;;;;;;;;;;;2.49;84.43;96852.88;7395720;19;1825;-64
2024/02/28 01:12:52;;;;;;;;;;;;;;;2.44;85.00;96853.75;7396222;19;1043;-63
2024/02/28 01:15:21;;;;;;;;;;;;;;;2.44;85.51;96849.41;7395882;19;1819;-64
2024/02/28 01:17:49;;;;;;;;;;;;;;;2.33;86.06;96851.16;7396018;19;1985;-74
2024/02/28 01:20:18;;;;;;;;;;;;;;;2.32;87.21;96850.28;7395850;19;1906;-67
2024/02/28 01:22:46;;;;;;;;;;;;;;;2.34;87.62;96850.28;7395785;19;1799;-67
2024/02/28 01:25:18;;;;;;;;;;;;;;;2.28;87.52;96845.97;7395432;19;1696;-65
2024/02/28 01:27:46;;;;;;;;;;;;;;;2.36;87.93;96857.19;7395363;19;1104;-68
2024/02/28 01:30:15;;;;;;;;;;;;;;;2.44;88.25;96849.41;7395262;19;1853;-71
2024/02/28 01:32:44;;;;;;;;;;;;;;;2.47;87.03;96852.00;7395723;19;1013;-73
2024/02/28 01:35:13;;;;;;;;;;;;;;;2.49;86.23;96855.44;7395458;19;1905;-70
2024/02/28 01:37:41;;;;;;;;;;;;;;;2.50;85.79;96846.00;7395024;19;1068;-70
2024/02/28 01:40:11;;;;;;;;;;;;;;;2.46;85.77;96855.44;7395812;19;1660;-70
2024/02/28 01:42:42;;;;;;;;;;;;;;;2.41;86.28;96849.44;7394961;19;1899;-65
2024/02/28 01:45:12;;;;;;;;;;;;;;;2.32;87.78;96849.44;7401162;19;1004;-70
2024/02/28 01:47:41;;;;;;;;;;;;;;;2.34;88.76;96852.88;7402753;19;1005;-70
2024/02/28 01:50:10;;;;;;;;;;;;;;;2.37;88.15;96847.69;7401857;19;1855;-73
2024/02/28 01:52:39;;;;;;;;;;;;;;;2.33;87.86;96852.03;7402455;19;1019;-63
2024/02/28 01:55:09;;;;;;;;;;;;;;;2.30;88.31;96864.94;7402312;19;1039;-74
2024/02/28 01:57:39;;;;;;;;;;;;;;;2.27;87.91;96854.59;7401889;19;1127;-66
2024/02/28 02:00:11;;;;;;;;;;;;;;;2.21;87.30;96852.00;7402229;19;1007;-65
2024/02/28 02:02:40;;;;;;;;;;;;;;;2.18;87.20;96852.88;7401766;19;1067;-70
2024/02/28 02:05:08;;;;;;;;;;;;;;;2.19;86.47;96852.00;7401529;19;1821;-67
2024/02/28 02:07:38;;;;;;;;;;;;;;;2.16;86.46;96854.59;7401913;19;969;-72
2024/02/28 02:10:10;;;;;;;;;;;;;;;2.18;86.44;96855.47;7401434;19;1048;-67
2024/02/28 02:12:39;;;;;;;;;;;;;;;2.09;86.94;96852.88;7401361;19;1103;-72
2024/02/28 02:15:10;;;;;;;;;;;;;;;2.06;87.25;96856.31;7401481;19;1774;-68
2024/02/28 02:17:39;;;;;;;;;;;;;;;1.97;87.81;96864.91;7401145;19;1144;-78
2024/02/28 02:23:06;;;;;;;;;;;;;;;1.96;88.66;96860.59;7400874;19;762;-73
2024/02/28 02:25:34;;;;;;;;;;;;;;;1.91;88.71;96869.19;7401580;19;1032;-74
2024/02/28 02:28:03;;;;;;;;;;;;;;;1.94;88.00;96864.91;7401107;19;2073;-72
2024/02/28 02:30:31;;;;;;;;;;;;;;;1.93;88.04;96862.31;7400465;19;1846;-69
2024/02/28 02:33:00;;;;;;;;;;;;;;;1.85;88.08;96859.72;7400981;19;1784;-66
2024/02/28 02:35:28;;;;;;;;;;;;;;;1.76;88.77;96858.84;7400556;19;1126;-68
2024/02/28 02:37:57;;;;;;;;;;;;;;;1.82;88.84;96868.31;7400841;19;1029;-75
2024/02/28 02:40:28;;;;;;;;;;;;;;;1.87;88.33;96870.91;7400368;19;1057;-71
2024/02/28 02:42:56;;;;;;;;;;;;;;;1.87;88.01;96866.59;7399773;19;1122;-68
2024/02/28 02:45:25;;;;;;;;;;;;;;;1.77;88.03;96870.88;7400642;19;1013;-70
2024/02/28 02:47:53;;;;;;;;;;;;;;;1.73;87.93;96874.31;7400215;19;1123;-69
2024/02/28 02:50:22;;;;;;;;;;;;;;;1.63;87.91;96872.56;7400050;19;1167;-72
2024/02/28 02:52:50;;;;;;;;;;;;;;;1.60;88.93;96881.16;7400488;19;1009;-71
2024/02/28 02:55:19;;;;;;;;;;;;;;;1.67;88.77;96876.88;7397328;19;1123;-65
2024/02/28 02:57:50;;;;;;;;;;;;;;;1.68;88.26;96870.84;7400318;19;1056;-71
2024/02/28 03:00:18;;;;;;;;;;;;;;;1.63;88.39;96873.41;7399658;19;1209;-72
2024/02/28 03:02:47;;;;;;;;;;;;;;;1.64;88.48;96869.13;7400084;19;1904;-71
2024/02/28 03:05:15;;;;;;;;;;;;;;;1.57;88.60;96870.84;7399887;19;1933;-75
2024/02/28 03:07:44;;;;;;;;;;;;;;;1.51;89.56;96876.81;7399573;19;1037;-70
2024/02/28 03:10:12;;;;;;;;;;;;;;;1.48;90.17;96871.66;7399507;19;1065;-69
2024/02/28 03:12:41;;;;;;;;;;;;;;;1.54;90.36;96876.00;7398013;19;1849;-65
2024/02/28 03:15:12;;;;;;;;;;;;;;;1.60;89.67;96878.56;7399710;19;1702;-74
2024/02/28 03:17:40;;;;;;;;;;;;;;;1.59;89.62;96887.16;7399850;19;1044;-68
2024/02/28 03:20:09;;;;;;;;;;;;;;;1.60;89.92;96877.72;7399480;19;1823;-71
2024/02/28 03:22:38;;;;;;;;;;;;;;;1.63;89.77;96895.78;7399307;19;2057;-76
2024/02/28 03:25:07;;;;;;;;;;;;;;;1.61;89.99;96880.31;7399284;19;1801;-69
2024/02/28 03:27:35;;;;;;;;;;;;;;;1.64;89.56;96887.19;7399710;19;1751;-69
2024/02/28 03:30:04;;;;;;;;;;;;;;;1.69;89.83;96902.69;7398777;19;1040;-68
2024/02/28 03:32:35;;;;;;;;;;;;;;;1.75;90.15;96894.97;7397133;19;1842;-76
2024/02/28 03:35:04;;;;;;;;;;;;;;;1.74;90.21;96894.09;7398848;19;1061;-78
2024/02/28 03:37:32;;;;;;;;;;;;;;;1.76;90.26;96900.13;7399641;19;1669;-70
2024/02/28 03:40:01;;;;;;;;;;;;;;;1.78;90.84;96900.13;7398973;19;1892;-69
2024/02/28 03:42:29;;;;;;;;;;;;;;;1.80;91.09;96908.72;7398697;19;1886;-76
2024/02/28 03:44:58;;;;;;;;;;;;;;;1.76;89.22;96905.28;7396838;19;1843;-72
2024/02/28 03:47:26;;;;;;;;;;;;;;;1.64;89.11;96915.56;7398647;19;952;-70
2024/02/28 03:49:59;;;;;;;;;;;;;;;1.62;90.26;96912.09;7398385;19;2102;-76
2024/02/28 03:52:29;;;;;;;;;;;;;;;1.63;90.18;96914.69;7397214;19;1849;-73
2024/02/28 03:54:57;;;;;;;;;;;;;;;1.61;90.15;96910.38;7398034;19;1053;-69
2024/02/28 03:57:26;;;;;;;;;;;;;;;1.55;90.06;96915.53;7398349;19;1056;-69
2024/02/28 03:59:54;;;;;;;;;;;;;;;1.50;91.61;96911.22;7398024;19;2245;-73
2024/02/28 04:02:23;;;;;;;;;;;;;;;1.49;91.55;96913.78;7397719;19;1067;-67
2024/02/28 04:04:51;;;;;;;;;;;;;;;1.49;92.21;96909.50;7398434;19;1723;-75
2024/02/28 04:07:22;;;;;;;;;;;;;;;1.48;91.42;96909.50;7397244;19;1016;-74
2024/02/28 04:09:51;;;;;;;;;;;;;;;1.49;90.10;96906.03;7397589;19;1029;-69
2024/02/28 04:12:19;;;;;;;;;;;;;;;1.41;89.87;96913.75;7396820;19;1920;-73
2024/02/28 04:14:48;;;;;;;;;;;;;;;1.38;89.20;96906.88;7397852;19;1815;-73
2024/02/28 04:17:16;;;;;;;;;;;;;;;1.35;89.07;96905.97;7398027;19;996;-67
2024/02/28 04:19:45;;;;;;;;;;;;;;;1.25;89.95;96899.94;7397967;19;1064;-69
2024/02/28 04:22:13;;;;;;;;;;;;;;;1.21;90.45;96899.03;7397586;19;1005;-70
2024/02/28 04:24:44;;;;;;;;;;;;;;;1.11;91.90;96903.28;7397350;19;1817;-66
2024/02/28 04:27:13;;;;;;;;;;;;;;;1.12;92.64;96906.75;7397431;19;945;-72
2024/02/28 04:29:41;;;;;;;;;;;;;;;1.16;92.77;96908.47;7396941;19;1021;-72
2024/02/28 04:32:10;;;;;;;;;;;;;;;1.20;93.25;96902.47;7395932;19;1837;-72
2024/02/28 04:34:39;;;;;;;;;;;;;;;1.24;93.40;96917.09;7396740;19;1057;-68
2024/02/28 04:37:07;;;;;;;;;;;;;;;1.26;92.97;96912.81;7396746;19;1116;-67
2024/02/28 04:39:36;;;;;;;;;;;;;;;1.35;93.49;96909.44;7396856;19;1812;-68
2024/02/28 04:42:07;;;;;;;;;;;;;;;1.36;93.11;96913.72;7396894;19;1907;-69
2024/02/28 04:44:36;;;;;;;;;;;;;;;1.39;92.51;96912.91;7394876;19;1096;-73
2024/02/28 04:47:05;;;;;;;;;;;;;;;1.41;91.43;96913.75;7397035;19;973;-67
2024/02/28 04:49:33;;;;;;;;;;;;;;;1.38;91.68;96909.44;7396398;19;1126;-72
2024/02/28 04:52:02;;;;;;;;;;;;;;;1.38;92.75;96906.88;7395957;19;1842;-62
2024/02/28 04:54:30;;;;;;;;;;;;;;;1.44;92.48;96915.50;7396640;19;941;-66
2024/02/28 04:56:59;;;;;;;;;;;;;;;1.44;91.66;96913.75;7396170;19;1048;-72
2024/02/28 04:59:30;;;;;;;;;;;;;;;1.39;93.07;96925.78;7396883;19;1866;-72
2024/02/28 05:01:58;;;;;;;;;;;;;;;1.42;93.43;96922.34;7396076;19;1024;-66
2024/02/28 05:04:27;;;;;;;;;;;;;;;1.48;93.56;96918.06;7396314;19;1894;-67
2024/02/28 05:06:55;;;;;;;;;;;;;;;1.55;92.94;96918.09;7395979;19;982;-67
2024/02/28 05:09:24;;;;;;;;;;;;;;;1.51;92.20;96920.66;7395936;19;1009;-64
2024/02/28 05:11:52;;;;;;;;;;;;;;;1.53;92.16;96918.09;7395306;19;1863;-68
2024/02/28 05:14:21;;;;;;;;;;;;;;;1.63;92.12;96916.44;7396314;19;1019;-71
2024/02/28 05:16:53;;;;;;;;;;;;;;;1.63;92.51;96916.44;7395712;19;1096;-69
2024/02/28 05:19:21;;;;;;;;;;;;;;;1.66;92.33;96918.16;7398958;19;1028;-71
2024/02/28 05:21:50;;;;;;;;;;;;;;;1.74;92.73;96911.28;7403588;19;997;-66
2024/02/28 05:24:19;;;;;;;;;;;;;;;1.82;92.60;96913.88;7403417;19;1811;-69
2024/02/28 05:26:47;;;;;;;;;;;;;;;1.94;93.49;96910.47;7402996;19;989;-70
2024/02/28 05:29:16;;;;;;;;;;;;;;;2.11;95.52;96913.94;7403236;19;1896;-67
2024/02/28 05:31:44;;;;;;;;;;;;;;;2.25;95.47;96916.56;7402268;19;1853;-69
2024/02/28 05:34:16;;;;;;;;;;;;;;;2.44;95.05;96924.31;7403054;19;2155;-68
2024/02/28 05:36:44;;;;;;;;;;;;;;;2.66;94.74;96919.16;7402698;19;1024;-69
2024/02/28 05:39:13;;;;;;;;;;;;;;;2.86;92.96;96932.06;7402810;19;1126;-74
2024/02/28 05:41:42;;;;;;;;;;;;;;;3.18;91.83;96932.88;7402697;19;1814;-72
2024/02/28 05:44:10;;;;;;;;;;;;;;;3.77;87.93;96935.25;7400694;19;2032;-66
2024/02/28 05:46:39;;;;;;;;;;;;;;;4.45;85.54;96940.91;7402315;19;1071;-73
2024/02/28 05:49:10;;;;;;;;;;;;;;;5.15;81.58;96949.84;7400046;19;1025;-69
2024/02/28 05:51:41;;;;;;;;;;;;;;;5.72;76.94;96944.91;7402251;19;1861;-67
2024/02/28 05:54:10;;;;;;;;;;;;;;;6.22;73.05;96946.88;7402069;19;1065;-71
2024/02/28 05:56:38;;;;;;;;;;;;;;;6.79;72.81;96953.84;7402017;19;1041;-73
2024/02/28 05:59:07;;;;;;;;;;;;;;;7.35;70.50;96959.84;7401821;19;1495;-70
2024/02/28 06:01:35;;;;;;;;;;;;;;;8.08;67.45;96962.75;7402115;19;1806;-64
2024/02/28 06:04:05;;;;;;;;;;;;;;;8.81;64.13;96962.88;7402062;19;1791;-67
2024/02/28 06:06:33;;;;;;;;;;;;;;;9.51;62.56;96976.78;7401976;19;1822;-69
2024/02/28 06:09:06;;;;;;;;;;;;;;;10.32;60.37;96978.88;7402085;19;1013;-73
2024/02/28 06:11:34;;;;;;;;;;;;;;;11.12;57.77;96983.44;7401351;19;1854;-72
2024/02/28 06:14:04;;;;;;;;;;;;;;;11.98;55.94;96985.69;7401828;19;1012;-73
2024/02/28 06:16:32;;;;;;;;;;;;;;;12.77;52.73;96984.50;7401426;19;1044;-76
2024/02/28 06:19:01;;;;;;;;;;;;;;;13.34;50.73;96982.25;7402057;19;1742;-65
2024/02/28 06:21:29;;;;;;;;;;;;;;;13.99;50.13;96982.09;7401155;19;969;-70
2024/02/28 06:23:58;;;;;;;;;;;;;;;14.58;48.87;96985.63;7401026;19;1021;-69
2024/02/28 06:26:31;;;;;;;;;;;;;;;15.16;47.93;96986.38;7400908;19;1123;-71
2024/02/28 06:29:01;;;;;;;;;;;;;;;15.40;47.29;96981.69;7401462;19;1036;-68
2024/02/28 06:31:31;;;;;;;;;;;;;;;16.22;46.70;96986.28;7400397;19;1143;-72
2024/02/28 06:33:59;;;;;;;;;;;;;;;16.84;44.87;96983.84;7398535;19;1843;-74
2024/02/28 06:36:28;;;;;;;;;;;;;;;17.06;43.45;96991.41;7400577;19;1048;-70
2024/02/28 06:38:56;;;;;;;;;;;;;;;16.74;44.46;96996.72;7400830;19;1910;-71
2024/02/28 06:41:25;;;;;;;;;;;;;;;16.09;45.84;97001.94;7400693;19;1820;-72
2024/02/28 06:43:56;;;;;;;;;;;;;;;14.90;47.02;97002.53;7399082;19;1096;-67
2024/02/28 06:46:24;;;;;;;;;;;;;;;13.85;49.04;97014.25;7400224;19;1065;-66
2024/02/28 06:48:53;;;;;;;;;;;;;;;12.92;50.89;97003.22;7400255;19;1111;-72
2024/02/28 06:51:21;;;;;;;;;;;;;;;12.48;53.46;97002.25;7400674;19;1024;-64
2024/02/28 06:53:50;;;;;;;;;;;;;;;12.62;53.71;97001.72;7398458;19;1879;-67
2024/02/28 06:56:18;;;;;;;;;;;;;;;12.93;53.71;97001.41;7400491;19;1048;-66
2024/02/28 06:58:47;;;;;;;;;;;;;;;13.30;52.79;97004.34;7400151;19;1776;-69
2024/02/28 07:01:18;;;;;;;;;;;;;;;13.52;52.59;97005.16;7400164;19;1893;-72
2024/02/28 07:03:47;;;;;;;;;;;;;;;13.85;52.70;97005.53;7399721;19;1072;-74
2024/02/28 07:06:15;;;;;;;;;;;;;;;14.29;51.47;97007.09;7399898;19;1903;-73
2024/02/28 07:08:43;;;;;;;;;;;;;;;15.02;50.43;97011.63;7399674;19;1139;-73
2024/02/28 07:11:15;;;;;;;;;;;;;;;15.52;49.17;97011.84;7399855;19;1807;-69
2024/02/28 07:13:44;;;;;;;;;;;;;;;15.89;48.70;97009.09;7397816;19;1847;-72
2024/02/28 07:16:12;;;;;;;;;;;;;;;16.10;48.58;97013.34;7399366;19;1072;-72
2024/02/28 07:18:43;;;;;;;;;;;;;;;15.70;48.98;97017.09;7399284;19;1006;-70
2024/02/28 07:21:12;;;;;;;;;;;;;;;16.34;47.87;97029.66;7399241;19;1135;-73
2024/02/28 07:23:41;;;;;;;;;;;;;;;16.40;47.93;97023.19;7399564;19;973;-72
2024/02/28 07:26:10;;;;;;;;;;;;;;;16.75;47.71;97022.19;7399889;19;1763;-72
2024/02/28 07:28:38;;;;;;;;;;;;;;;16.86;46.45;97021.59;7398968;19;1115;-73
2024/02/28 07:31:07;;;;;;;;;;;;;;;16.99;46.22;97027.91;7398983;19;1060;-74
2024/02/28 07:33:35;;;;;;;;;;;;;;;17.21;45.55;97029.34;7397393;19;1872;-69
2024/02/28 07:36:07;;;;;;;;;;;;;;;17.62;44.51;97038.47;7398985;19;1788;-71
2024/02/28 07:38:35;;;;;;;;;;;;;;;17.73;44.28;97037.00;7398547;19;1056;-69
2024/02/28 07:41:04;;;;;;;;;;;;;;;17.51;44.91;97036.44;7398344;19;1715;-71
2024/02/28 07:43:36;;;;;;;;;;;;;;;17.34;45.86;97026.00;7397461;19;1769;-71
2024/02/28 07:46:05;;;;;;;;;;;;;;;17.64;44.88;97033.09;7398438;19;1000;-73
2024/02/28 07:48:34;;;;;;;;;;;;;;;18.04;43.92;97032.50;7398211;19;1151;-73
2024/02/28 07:51:02;;;;;;;;;;;;;;;18.54;42.77;97040.06;7398649;19;1048;-66
2024/02/28 07:53:33;;;;;;;;;;;;;;;18.84;42.37;97030.31;7396915;19;1841;-70
2024/02/28 07:56:02;;;;;;;;;;;;;;;18.67;42.32;97040.19;7398046;19;1056;-74
2024/02/28 07:58:31;;;;;;;;;;;;;;;18.68;43.29;97026.84;7398371;19;1032;-69
2024/02/28 08:00:59;;;;;;;;;;;;;;;18.65;42.81;97028.81;7398225;19;1792;-68
2024/02/28 08:03:27;;;;;;;;;;;;;;;18.46;43.64;97027.34;7398136;19;1961;-73
2024/02/28 08:05:56;;;;;;;;;;;;;;;18.12;44.35;97026.78;7397720;19;1240;-69
2024/02/28 08:08:25;;;;;;;;;;;;;;;17.98;45.19;97028.44;7398159;19;1023;-71
2024/02/28 08:10:56;;;;;;;;;;;;;;;17.96;45.40;97030.31;7397926;19;1919;-72
2024/02/28 08:13:26;;;;;;;;;;;;;;;17.49;46.59;97021.63;7397144;19;1857;-66
2024/02/28 08:15:55;;;;;;;;;;;;;;;17.07;47.47;97022.22;7398021;19;981;-63
2024/02/28 08:18:23;;;;;;;;;;;;;;;16.85;48.95;97022.53;7397642;19;1921;-63
2024/02/28 08:20:53;;;;;;;;;;;;;;;16.76;48.85;97015.97;7397332;19;1048;-72
2024/02/28 08:23:21;;;;;;;;;;;;;;;16.45;48.64;97013.25;7397239;19;1021;-63
2024/02/28 08:25:49;;;;;;;;;;;;;;;16.40;49.54;97012.63;7397266;19;1921;-71
2024/02/28 08:28:20;;;;;;;;;;;;;;;16.43;49.70;97017.75;7397066;19;1147;-68
2024/02/28 08:30:49;;;;;;;;;;;;;;;16.77;49.14;97005.31;7397062;19;925;-67
2024/02/28 08:33:17;;;;;;;;;;;;;;;16.94;48.12;97011.44;7396601;19;1910;-71
2024/02/28 08:35:46;;;;;;;;;;;;;;;17.04;48.11;97009.16;7397418;19;1048;-69
2024/02/28 08:38:14;;;;;;;;;;;;;;;16.80;48.59;97006.97;7397260;19;1806;-66
2024/02/28 08:40:43;;;;;;;;;;;;;;;16.71;48.53;97016.25;7397070;19;1807;-67
2024/02/28 08:43:11;;;;;;;;;;;;;;;16.67;48.42;97017.34;7396377;19;1893;-71
2024/02/28 08:45:43;;;;;;;;;;;;;;;16.35;49.20;97014.69;7396574;19;1017;-71
2024/02/28 08:48:11;;;;;;;;;;;;;;;15.93;50.24;97020.34;7396933;19;953;-73
2024/02/28 08:50:39;;;;;;;;;;;;;;;15.76;50.11;97018.56;7396939;19;1044;-68
2024/02/28 08:53:08;;;;;;;;;;;;;;;15.40;51.12;97013.31;7398423;19;1837;-69
2024/02/28 08:55:36;;;;;;;;;;;;;;;15.50;50.79;97018.97;7404472;19;1004;-70
2024/02/28 08:58:05;;;;;;;;;;;;;;;15.58;51.88;97020.34;7403976;19;1860;-71
2024/02/28 09:00:33;;;;;;;;;;;;;;;15.60;51.93;97027.28;7404255;19;978;-67
2024/02/28 09:03:06;;;;;;;;;;;;;;;15.72;52.04;97019.66;7403802;19;1087;-72
2024/02/28 09:05:34;;;;;;;;;;;;;;;15.79;50.82;97027.19;7403762;19;1039;-70
2024/02/28 09:08:03;;;;;;;;;;;;;;;15.87;50.89;97025.94;7404066;19;1024;-72
2024/02/28 09:10:34;;;;;;;;;;;;;;;15.88;50.60;97027.63;7403876;19;1899;-71
2024/02/28 09:13:02;;;;;;;;;;;;;;;15.62;50.88;97017.47;7402830;19;1849;-72
2024/02/28 09:15:31;;;;;;;;;;;;;;;15.58;51.31;97021.22;7403881;19;1763;-72
2024/02/28 09:18:00;;;;;;;;;;;;;;;15.86;51.59;97019.78;7403311;19;1222;-66
2024/02/28 09:20:31;;;;;;;;;;;;;;;16.02;51.79;97009.31;7403588;19;960;-69
2024/02/28 09:23:00;;;;;;;;;;;;;;;15.97;49.26;97015.78;7403594;19;954;-71
2024/02/28 09:25:28;;;;;;;;;;;;;;;16.24;49.48;97007.31;7403496;19;1055;-70
2024/02/28 09:27:57;;;;;;;;;;;;;;;16.20;48.99;97016.34;7403453;19;962;-70
2024/02/28 09:30:25;;;;;;;;;;;;;;;16.29;48.41;97018.50;7403379;19;985;-73
2024/02/28 09:32:53;;;;;;;;;;;;;;;16.22;47.72;97019.78;7403249;19;1845;-70
2024/02/28 09:35:22;;;;;;;;;;;;;;;16.09;49.57;97020.41;7402850;19;1060;-73
2024/02/28 09:37:53;;;;;;;;;;;;;;;16.15;48.92;97021.88;7403179;19;997;-69
2024/02/28 09:40:21;;;;;;;;;;;;;;;16.39;48.95;97008.28;7403166;19;1040;-70
2024/02/28 09:42:55;;;;;;;;;;;;;;;16.68;48.76;97011.97;7402259;19;1770;-73
2024/02/28 09:45:24;;;;;;;;;;;;;;;16.88;47.48;97020.56;7403056;19;1024;-66
2024/02/28 09:47:52;;;;;;;;;;;;;;;16.99;47.22;97019.97;7402478;19;1052;-74
2024/02/28 09:50:22;;;;;;;;;;;;;;;16.90;47.00;97015.22;7402200;19;1060;-74
2024/02/28 09:52:53;;;;;;;;;;;;;;;16.86;46.81;97021.59;7402226;19;1933;-71
2024/02/28 09:55:22;;;;;;;;;;;;;;;17.00;46.31;97011.09;7402160;19;1065;-70
2024/02/28 09:57:51;;;;;;;;;;;;;;;16.95;47.81;97010.53;7401925;19;1111;-71
2024/02/28 10:00:21;;;;;;;;;;;;;;;16.98;45.27;97009.50;7402415;19;1099;-71
2024/02/28 10:02:50;;;;;;;;;;;;;;;16.93;45.49;97013.25;7401797;19;1041;-75
2024/02/28 10:05:19;;;;;;;;;;;;;;;17.05;44.87;97013.50;7400490;19;1072;-71
2024/02/28 10:07:48;;;;;;;;;;;;;;;16.95;43.49;97005.25;7401652;19;997;-72
2024/02/28 10:10:20;;;;;;;;;;;;;;;16.91;45.04;96998.41;7399269;19;1962;-72
2024/02/28 10:12:48;;;;;;;;;;;;;;;16.99;43.69;96995.34;7401947;19;1255;-66
2024/02/28 10:15:17;;;;;;;;;;;;;;;17.11;44.85;96997.31;7398985;19;1850;-70
2024/02/28 10:17:45;;;;;;;;;;;;;;;17.12;44.12;97000.78;7401720;19;1900;-72
2024/02/28 10:20:14;;;;;;;;;;;;;;;17.22;43.77;96996.69;7401331;19;1032;-64
2024/02/28 10:22:42;;;;;;;;;;;;;;;17.28;43.61;96991.03;7401450;19;865;-66
2024/02/28 10:25:11;;;;;;;;;;;;;;;17.24;42.94;96996.59;7401581;19;993;-76
2024/02/28 10:27:42;;;;;;;;;;;;;;;17.15;43.65;96982.13;7401045;19;1049;-68
2024/02/28 10:30:11;;;;;;;;;;;;;;;17.24;42.49;96983.38;7400926;19;1104;-71
2024/02/28 10:32:40;;;;;;;;;;;;;;;17.35;43.21;96975.69;7401261;19;969;-70
2024/02/28 10:35:09;;;;;;;;;;;;;;;17.36;43.74;96974.75;7398697;19;1877;-66
2024/02/28 10:37:38;;;;;;;;;;;;;;;17.33;45.25;96971.44;7400725;19;1052;-73
2024/02/28 10:40:08;;;;;;;;;;;;;;;17.27;45.35;96976.13;7400672;19;989;-66
2024/02/28 10:42:38;;;;;;;;;;;;;;;17.45;42.61;96975.16;7400555;19;1057;-70
2024/02/28 10:45:10;;;;;;;;;;;;;;;17.35;43.83;96967.75;7400880;19;1769;-72
2024/02/28 10:47:41;;;;;;;;;;;;;;;17.28;42.89;96969.88;7400337;19;1132;-71
2024/02/28 10:50:10;;;;;;;;;;;;;;;17.30;43.50;96961.88;7400321;19;990;-69
2024/02/28 10:52:41;;;;;;;;;;;;;;;17.37;43.00;96962.38;7400470;19;1928;-73
2024/02/28 10:55:11;;;;;;;;;;;;;;;17.40;42.47;96957.75;7398263;19;1845;-72
2024/02/28 10:57:41;;;;;;;;;;;;;;;17.30;41.96;96953.94;7400467;19;1020;-71
2024/02/28 11:00:15;;;;;;;;;;;;;;;17.39;42.47;96949.91;7399993;19;1182;-73
2024/02/28 11:02:44;;;;;;;;;;;;;;;17.46;42.33;96951.22;7400410;19;992;-69
2024/02/28 11:05:12;;;;;;;;;;;;;;;17.49;41.65;96943.13;7400294;19;969;-67
2024/02/28 11:07:43;;;;;;;;;;;;;;;17.29;42.86;96950.47;7399942;19;902;-71
2024/02/28 11:10:13;;;;;;;;;;;;;;;17.25;42.50;96948.09;7399662;19;1126;-75
2024/02/28 11:12:41;;;;;;;;;;;;;;;17.12;42.38;96940.88;7399540;19;1142;-70
2024/02/28 11:15:19;;;;;;;;;;;;;;;16.84;42.79;96928.38;7397800;19;1838;-73
2024/02/28 11:17:48;;;;;;;;;;;;;;;16.78;44.82;96924.28;7397002;19;1025;-75
2024/02/28 11:20:17;;;;;;;;;;;;;;;16.95;44.75;96923.34;7399753;19;1048;-66
2024/02/28 11:22:45;;;;;;;;;;;;;;;17.02;43.87;96918.53;7399541;19;994;-67
2024/02/28 11:25:14;;;;;;;;;;;;;;;16.96;43.68;96925.03;7399958;19;1772;-74
2024/02/28 11:27:52;;;;;;;;;;;;;;;17.07;43.79;96911.22;7398984;19;1017;-70
2024/02/28 11:30:25;;;;;;;;;;;;;;;17.13;44.57;96907.38;7398975;19;1028;-65
2024/02/28 11:32:54;;;;;;;;;;;;;;;17.28;43.74;96911.72;7398818;19;1191;-71
2024/02/28 11:35:23;;;;;;;;;;;;;;;17.36;43.43;96903.34;7397148;19;1857;-73
2024/02/28 11:37:53;;;;;;;;;;;;;;;17.45;44.08;96898.47;7399032;19;1823;-69
2024/02/28 11:40:22;;;;;;;;;;;;;;;17.49;43.54;96890.22;7398652;19;1020;-72
2024/02/28 11:42:51;;;;;;;;;;;;;;;17.51;43.23;96898.94;7398832;19;1673;-73
2024/02/28 11:45:19;;;;;;;;;;;;;;;17.42;43.64;96900.34;7398511;19;1135;-72
2024/02/28 11:47:50;;;;;;;;;;;;;;;17.42;44.01;96900.34;7398315;19;1056;-66
2024/02/28 11:50:19;;;;;;;;;;;;;;;17.15;43.12;96898.41;7398311;19;1065;-73
2024/02/28 11:52:49;;;;;;;;;;;;;;;17.10;43.61;96896.97;7398538;19;1927;-71
2024/02/28 11:55:17;;;;;;;;;;;;;;;17.02;44.09;96898.25;7396728;19;1838;-73
2024/02/28 11:57:46;;;;;;;;;;;;;;;17.11;44.21;96888.09;7398515;19;1019;-67
2024/02/28 12:00:15;;;;;;;;;;;;;;;17.30;44.39;96887.84;7398004;19;993;-69
2024/02/28 12:02:43;;;;;;;;;;;;;;;17.39;43.75;96883.81;7398279;19;1840;-68
2024/02/28 12:05:14;;;;;;;;;;;;;;;17.48;43.93;96885.91;7398260;19;2057;-76
2024/02/28 12:07:44;;;;;;;;;;;;;;;17.57;43.17;96879.19;7397666;19;1029;-73
2024/02/28 12:10:12;;;;;;;;;;;;;;;17.64;43.32;96877.88;7398119;19;1022;-71
2024/02/28 12:12:41;;;;;;;;;;;;;;;17.66;43.42;96883.06;7398375;19;1640;-65
2024/02/28 12:15:10;;;;;;;;;;;;;;;17.61;43.93;96878.06;7396842;19;1861;-70
2024/02/28 12:17:39;;;;;;;;;;;;;;;17.65;43.97;96868.16;7397939;19;1177;-70
2024/02/28 12:20:08;;;;;;;;;;;;;;;17.62;43.56;96870.97;7398118;19;1156;-68
2024/02/28 12:22:39;;;;;;;;;;;;;;;17.49;44.55;96870.88;7397633;19;1882;-72
2024/02/28 12:25:09;;;;;;;;;;;;;;;17.39;44.00;96866.16;7397866;19;1121;-65
2024/02/28 12:27:37;;;;;;;;;;;;;;;17.34;44.17;96862.91;7396893;19;974;-67
2024/02/28 12:30:06;;;;;;;;;;;;;;;17.21;44.99;96861.97;7397426;19;1819;-71
2024/02/28 12:32:35;;;;;;;;;;;;;;;17.09;44.18;96859.13;7397002;19;1126;-67
2024/02/28 12:35:04;;;;;;;;;;;;;;;17.00;44.78;96864.91;7396797;19;1841;-70
2024/02/28 12:37:32;;;;;;;;;;;;;;;17.05;45.11;96860.22;7397294;19;1036;-69
2024/02/28 12:40:04;;;;;;;;;;;;;;;17.12;44.70;96858.06;7396891;19;1134;-75
2024/02/28 12:42:33;;;;;;;;;;;;;;;17.25;45.01;96853.75;7396753;19;1025;-66
2024/02/28 12:45:01;;;;;;;;;;;;;;;17.34;44.33;96859.44;7395439;19;1770;-73
2024/02/28 12:47:31;;;;;;;;;;;;;;;17.44;44.06;96855.31;7396939;19;1895;-74
2024/02/28 12:49:59;;;;;;;;;;;;;;;17.34;43.84;96856.81;7396990;19;953;-70
2024/02/28 12:52:28;;;;;;;;;;;;;;;17.28;44.22;96850.94;7396373;19;966;-68
2024/02/28 12:54:56;;;;;;;;;;;;;;;17.34;44.36;96849.72;7395851;19;1859;-71
2024/02/28 12:57:28;;;;;;;;;;;;;;;17.32;45.50;96845.47;7396685;19;1911;-75
2024/02/28 12:59:56;;;;;;;;;;;;;;;17.32;44.55;96848.97;7396796;19;1019;-71
2024/02/28 13:02:25;;;;;;;;;;;;;;;17.40;44.66;96843.22;7396481;19;1910;-71
2024/02/28 13:04:54;;;;;;;;;;;;;;;17.41;45.21;96842.25;7396131;19;1078;-73
2024/02/28 13:07:22;;;;;;;;;;;;;;;17.47;44.88;96841.91;7396615;19;1289;-69
2024/02/28 13:09:51;;;;;;;;;;;;;;;17.48;44.97;96843.59;7396420;19;960;-72
2024/02/28 13:12:20;;;;;;;;;;;;;;;17.57;44.67;96842.16;7395901;19;1040;-70
2024/02/28 13:14:51;;;;;;;;;;;;;;;17.47;44.40;96841.91;7395368;19;1838;-68